createdAt,value
2017-02-21T00:00:06.120Z,1004.08
2017-02-21T00:01:06.108Z,1004.07
2017-02-21T00:02:06.091Z,1004.05
2017-02-21T00:03:06.077Z,1004.05
2017-02-21T00:04:06.060Z,1004.06
2017-02-21T00:05:06.046Z,1004.04
2017-02-21T00:06:06.030Z,1003.98
2017-02-21T00:07:06.014Z,1004.02
2017-02-21T00:08:06.001Z,1004.04
2017-02-21T00:09:05.985Z,1003.99
2017-02-21T00:10:05.970Z,1003.99
2017-02-21T00:11:05.955Z,1004.01
2017-02-21T00:12:05.941Z,1003.99
2017-02-21T00:13:05.925Z,1004
2017-02-21T00:14:05.910Z,1003.97
2017-02-21T00:15:05.895Z,1003.99
2017-02-21T00:16:05.881Z,1003.98
2017-02-21T00:17:05.865Z,1003.95
2017-02-21T00:18:05.849Z,1003.9
2017-02-21T00:19:05.837Z,1003.92
2017-02-21T00:20:05.819Z,1003.93
2017-02-21T00:21:05.805Z,1003.92
2017-02-21T00:22:05.790Z,1003.94
2017-02-21T00:23:05.774Z,1003.88
2017-02-21T00:24:05.760Z,1003.95
2017-02-21T00:25:05.745Z,1003.92
2017-02-21T00:26:05.732Z,1003.93
2017-02-21T00:27:05.714Z,1003.97
2017-02-21T00:28:05.699Z,1003.92
2017-02-21T00:29:05.684Z,1003.99
2017-02-21T00:30:05.670Z,1003.96
2017-02-21T00:31:05.655Z,1003.97
2017-02-21T00:32:05.639Z,1004.01
2017-02-21T00:33:05.624Z,1003.98
2017-02-21T00:34:05.607Z,1003.97
2017-02-21T00:35:05.593Z,1003.98
2017-02-21T00:36:05.578Z,1004
2017-02-21T00:37:05.765Z,1003.97
2017-02-21T00:38:05.548Z,1003.92
2017-02-21T00:39:05.534Z,1003.94
2017-02-21T00:40:05.516Z,1003.93
2017-02-21T00:41:05.503Z,1003.93
2017-02-21T00:42:05.488Z,1003.98
2017-02-21T00:43:05.475Z,1003.94
2017-02-21T00:44:05.457Z,1003.96
2017-02-21T00:45:05.442Z,1003.99
2017-02-21T00:46:05.428Z,1003.96
2017-02-21T00:47:05.414Z,1003.9
2017-02-21T00:48:05.397Z,1004.02
2017-02-21T00:49:05.384Z,1004.05
2017-02-21T00:50:05.367Z,1004.03
2017-02-21T00:51:05.351Z,1004.01
2017-02-21T00:52:05.336Z,1004.04
2017-02-21T00:53:05.321Z,1004.06
2017-02-21T00:54:05.307Z,1004.1
2017-02-21T00:55:05.290Z,1004.04
2017-02-21T00:56:05.276Z,1004.05
2017-02-21T00:57:05.262Z,1004.05
2017-02-21T00:58:05.247Z,1004.01
2017-02-21T00:59:05.230Z,1003.99
2017-02-21T01:00:05.216Z,1004.01
2017-02-21T01:01:05.200Z,1004.01
2017-02-21T01:02:05.185Z,1003.99
2017-02-21T01:03:05.172Z,1003.99
2017-02-21T01:04:05.155Z,1003.91
2017-02-21T01:05:05.142Z,1003.95
2017-02-21T01:06:05.126Z,1003.94
2017-02-21T01:07:05.109Z,1003.95
2017-02-21T01:08:05.095Z,1003.94
2017-02-21T01:09:05.080Z,1003.95
2017-02-21T01:10:05.064Z,1003.98
2017-02-21T01:11:05.049Z,1003.96
2017-02-21T01:12:05.033Z,1004.01
2017-02-21T01:13:05.019Z,1003.98
2017-02-21T01:14:05.002Z,1003.96
2017-02-21T01:15:04.989Z,1003.91
2017-02-21T01:16:04.973Z,1003.97
2017-02-21T01:17:04.958Z,1003.93
2017-02-21T01:18:04.943Z,1003.95
2017-02-21T01:19:04.932Z,1003.98
2017-02-21T01:20:04.912Z,1003.97
2017-02-21T01:21:04.896Z,1003.91
2017-02-21T01:22:04.882Z,1003.87
2017-02-21T01:23:04.870Z,1003.88
2017-02-21T01:24:04.851Z,1003.83
2017-02-21T01:25:04.836Z,1003.8
2017-02-21T01:26:04.821Z,1003.8
2017-02-21T01:27:04.808Z,1003.8
2017-02-21T01:28:04.790Z,1003.81
2017-02-21T01:29:04.779Z,1003.84
2017-02-21T01:30:04.762Z,1003.86
2017-02-21T01:31:04.746Z,1003.86
2017-02-21T01:32:04.730Z,1003.87
2017-02-21T01:33:04.722Z,1003.91
2017-02-21T01:34:04.701Z,1003.86
2017-02-21T01:35:04.683Z,1003.89
2017-02-21T01:36:04.669Z,1003.9
2017-02-21T01:37:04.654Z,1003.95
2017-02-21T01:38:04.639Z,1003.94
2017-02-21T01:39:04.623Z,1003.89
2017-02-21T01:40:04.609Z,1003.92
2017-02-21T01:41:04.594Z,1003.95
2017-02-21T01:42:04.580Z,1003.91
2017-02-21T01:43:04.564Z,1003.88
2017-02-21T01:44:04.548Z,1003.92
2017-02-21T01:45:04.535Z,1003.91
2017-02-21T01:46:04.520Z,1003.91
2017-02-21T01:47:04.506Z,1003.96
2017-02-21T01:48:04.488Z,1004.03
2017-02-21T01:49:04.474Z,1003.99
2017-02-21T01:50:04.457Z,1004
2017-02-21T01:51:04.443Z,1003.97
2017-02-21T01:52:04.430Z,1003.92
2017-02-21T01:53:04.414Z,1003.95
2017-02-21T01:54:04.396Z,1003.97
2017-02-21T01:55:04.382Z,1003.95
2017-02-21T01:56:04.367Z,1003.94
2017-02-21T01:57:04.352Z,1004.01
2017-02-21T01:58:04.337Z,1003.98
2017-02-21T01:59:04.322Z,1004.06
2017-02-21T02:00:04.307Z,1004.01
2017-02-21T02:01:04.291Z,1003.94
2017-02-21T02:02:04.278Z,1003.92
2017-02-21T02:03:04.263Z,1003.93
2017-02-21T02:04:04.245Z,1003.97
2017-02-21T02:05:04.230Z,1003.91
2017-02-21T02:06:04.216Z,1003.86
2017-02-21T02:07:04.201Z,1003.83
2017-02-21T02:08:04.184Z,1003.82
2017-02-21T02:09:04.170Z,1003.81
2017-02-21T02:10:04.157Z,1003.84
2017-02-21T02:11:04.140Z,1003.83
2017-02-21T02:12:04.153Z,1003.81
2017-02-21T02:13:04.110Z,1003.84
2017-02-21T02:14:04.094Z,1003.84
2017-02-21T02:15:04.077Z,1003.82
2017-02-21T02:16:04.064Z,1003.82
2017-02-21T02:17:04.049Z,1003.75
2017-02-21T02:18:04.034Z,1003.78
2017-02-21T02:19:04.026Z,1003.82
2017-02-21T02:20:04.003Z,1003.81
2017-02-21T02:21:03.987Z,1003.82
2017-02-21T02:22:03.970Z,1003.83
2017-02-21T02:23:03.956Z,1003.85
2017-02-21T02:24:03.941Z,1003.84
2017-02-21T02:25:03.923Z,1003.87
2017-02-21T02:26:03.909Z,1003.85
2017-02-21T02:27:03.893Z,1003.82
2017-02-21T02:28:03.879Z,1003.94
2017-02-21T02:29:03.866Z,1003.9
2017-02-21T02:30:03.847Z,1003.87
2017-02-21T02:31:03.832Z,1003.91
2017-02-21T02:32:03.817Z,1003.87
2017-02-21T02:33:03.802Z,1003.92
2017-02-21T02:34:03.786Z,1003.9
2017-02-21T02:35:03.771Z,1003.89
2017-02-21T02:36:03.755Z,1003.87
2017-02-21T02:37:03.943Z,1003.89
2017-02-21T02:38:03.725Z,1003.94
2017-02-21T02:39:03.709Z,1003.93
2017-02-21T02:40:03.707Z,1003.89
2017-02-21T02:41:03.678Z,1003.85
2017-02-21T02:42:03.663Z,1003.84
2017-02-21T02:43:03.653Z,1003.86
2017-02-21T02:44:03.632Z,1003.85
2017-02-21T02:45:03.617Z,1003.92
2017-02-21T02:46:03.602Z,1003.87
2017-02-21T02:47:03.587Z,1003.89
2017-02-21T02:48:03.571Z,1003.85
2017-02-21T02:49:03.558Z,1003.88
2017-02-21T02:50:03.540Z,1003.81
2017-02-21T02:51:03.527Z,1003.83
2017-02-21T02:52:03.509Z,1003.82
2017-02-21T02:53:03.496Z,1003.77
2017-02-21T02:54:03.480Z,1003.75
2017-02-21T02:55:03.462Z,1003.74
2017-02-21T02:56:03.447Z,1003.74
2017-02-21T02:57:03.432Z,1003.76
2017-02-21T02:58:03.417Z,1003.75
2017-02-21T02:59:03.401Z,1003.79
2017-02-21T03:00:03.387Z,1003.8
2017-02-21T03:01:03.373Z,1003.82
2017-02-21T03:02:03.356Z,1003.8
2017-02-21T03:03:03.338Z,1003.91
2017-02-21T03:04:03.326Z,1003.86
2017-02-21T03:05:03.308Z,1003.87
2017-02-21T03:06:03.292Z,1003.85
2017-02-21T03:07:03.277Z,1003.86
2017-02-21T03:08:03.261Z,1003.86
2017-02-21T03:09:03.250Z,1003.82
2017-02-21T03:10:03.228Z,1003.83
2017-02-21T03:11:03.214Z,1003.87
2017-02-21T03:12:03.198Z,1003.86
2017-02-21T03:13:03.184Z,1003.85
2017-02-21T03:14:03.168Z,1003.83
2017-02-21T03:15:03.151Z,1003.86
2017-02-21T03:16:03.138Z,1003.81
2017-02-21T03:17:03.121Z,1003.87
2017-02-21T03:18:03.106Z,1003.86
2017-02-21T03:19:03.091Z,1003.83
2017-02-21T03:20:03.076Z,1003.87
2017-02-21T03:21:03.058Z,1003.82
2017-02-21T03:22:03.043Z,1003.81
2017-02-21T03:23:03.027Z,1003.75
2017-02-21T03:24:03.012Z,1003.75
2017-02-21T03:25:02.995Z,1003.82
2017-02-21T03:26:02.980Z,1003.92
2017-02-21T03:27:02.964Z,1003.89
2017-02-21T03:28:02.947Z,1003.89
2017-02-21T03:29:02.933Z,1003.87
2017-02-21T03:30:02.917Z,1003.88
2017-02-21T03:31:02.902Z,1003.88
2017-02-21T03:32:02.885Z,1003.89
2017-02-21T03:33:02.870Z,1003.87
2017-02-21T03:34:02.855Z,1003.83
2017-02-21T03:35:02.838Z,1003.83
2017-02-21T03:36:02.822Z,1003.86
2017-02-21T03:37:02.808Z,1003.91
2017-02-21T03:38:02.792Z,1003.93
2017-02-21T03:39:02.775Z,1003.92
2017-02-21T03:40:02.762Z,1003.97
2017-02-21T03:41:02.744Z,1003.94
2017-02-21T03:42:02.727Z,1003.93
2017-02-21T03:43:02.712Z,1003.95
2017-02-21T03:44:02.697Z,1003.96
2017-02-21T03:45:02.683Z,1003.96
2017-02-21T03:46:02.668Z,1004
2017-02-21T03:47:02.649Z,1003.97
2017-02-21T03:48:02.633Z,1003.93
2017-02-21T03:49:02.617Z,1003.94
2017-02-21T03:50:02.604Z,1003.87
2017-02-21T03:51:02.587Z,1003.83
2017-02-21T03:52:02.572Z,1003.94
2017-02-21T03:53:02.554Z,1003.97
2017-02-21T03:54:02.537Z,1003.97
2017-02-21T03:55:02.522Z,1003.95
2017-02-21T03:56:02.509Z,1004
2017-02-21T03:57:02.495Z,1004.02
2017-02-21T03:58:02.476Z,1003.95
2017-02-21T03:59:02.460Z,1003.97
2017-02-21T04:00:02.450Z,1004
2017-02-21T04:01:02.426Z,1004.05
2017-02-21T04:02:02.410Z,1004.07
2017-02-21T04:03:02.396Z,1004.09
2017-02-21T04:04:02.378Z,1004.05
2017-02-21T04:05:02.370Z,1004.08
2017-02-21T04:06:02.347Z,1004.14
2017-02-21T04:07:02.330Z,1004.08
2017-02-21T04:08:02.315Z,1004.08
2017-02-21T04:09:02.302Z,1004.12
2017-02-21T04:10:02.283Z,1004.07
2017-02-21T04:11:02.268Z,1004.14
2017-02-21T04:12:02.251Z,1004.12
2017-02-21T04:13:02.243Z,1004.16
2017-02-21T04:14:02.220Z,1004.17
2017-02-21T04:15:02.203Z,1004.19
2017-02-21T04:16:02.188Z,1004.21
2017-02-21T04:17:02.171Z,1004.23
2017-02-21T04:18:02.155Z,1004.19
2017-02-21T04:19:02.139Z,1004.22
2017-02-21T04:20:02.133Z,1004.21
2017-02-21T04:21:02.110Z,1004.23
2017-02-21T04:22:02.092Z,1004.21
2017-02-21T04:23:02.086Z,1004.18
2017-02-21T04:24:02.059Z,1004.26
2017-02-21T04:25:02.046Z,1004.19
2017-02-21T04:26:02.028Z,1004.17
2017-02-21T04:27:02.027Z,1004.14
2017-02-21T04:28:02.000Z,1004.13
2017-02-21T04:29:01.986Z,1004.13
2017-02-21T04:30:01.963Z,1004.07
2017-02-21T04:31:01.971Z,1004.05
2017-02-21T04:32:01.937Z,1004.01
2017-02-21T04:33:01.917Z,1003.98
2017-02-21T04:34:01.899Z,1003.96
2017-02-21T04:35:01.913Z,1003.94
2017-02-21T04:36:01.874Z,1003.94
2017-02-21T04:37:02.056Z,1003.97
2017-02-21T04:38:01.834Z,1003.99
2017-02-21T04:39:01.822Z,1004.04
2017-02-21T04:40:01.805Z,1004.09
2017-02-21T04:41:01.785Z,1004.07
2017-02-21T04:42:01.770Z,1004.14
2017-02-21T04:43:01.754Z,1004.15
2017-02-21T04:44:01.739Z,1004.14
2017-02-21T04:45:01.722Z,1004.14
2017-02-21T04:46:01.706Z,1004.12
2017-02-21T04:47:01.691Z,1004.15
2017-02-21T04:48:01.675Z,1004.1
2017-02-21T04:49:01.663Z,1004.11
2017-02-21T04:50:01.643Z,1004.02
2017-02-21T04:51:01.626Z,1004.07
2017-02-21T04:52:01.615Z,1004.12
2017-02-21T04:53:01.593Z,1004.17
2017-02-21T04:54:01.577Z,1004.19
2017-02-21T04:55:01.562Z,1004.2
2017-02-21T04:56:01.544Z,1004.25
2017-02-21T04:57:01.528Z,1004.23
2017-02-21T04:58:01.516Z,1004.21
2017-02-21T04:59:01.498Z,1004.22
2017-02-21T05:00:01.480Z,1004.27
2017-02-21T05:01:01.463Z,1004.23
2017-02-21T05:02:01.448Z,1004.25
2017-02-21T05:03:01.431Z,1004.38
2017-02-21T05:04:01.417Z,1004.39
2017-02-21T05:05:01.399Z,1004.39
2017-02-21T05:06:01.385Z,1004.4
2017-02-21T05:07:01.366Z,1004.41
2017-02-21T05:08:01.351Z,1004.45
2017-02-21T05:09:01.335Z,1004.42
2017-02-21T05:10:01.319Z,1004.37
2017-02-21T05:11:01.303Z,1004.44
2017-02-21T05:12:01.287Z,1004.42
2017-02-21T05:13:01.271Z,1004.43
2017-02-21T05:14:01.253Z,1004.4
2017-02-21T05:15:01.236Z,1004.5
2017-02-21T05:16:01.221Z,1004.48
2017-02-21T05:17:01.205Z,1004.57
2017-02-21T05:18:01.187Z,1004.56
2017-02-21T05:19:01.176Z,1004.56
2017-02-21T05:20:01.157Z,1004.5
2017-02-21T05:21:01.137Z,1004.52
2017-02-21T05:22:01.124Z,1004.55
2017-02-21T05:23:01.106Z,1004.48
2017-02-21T05:24:01.089Z,1004.49
2017-02-21T05:25:01.072Z,1004.51
2017-02-21T05:26:01.056Z,1004.49
2017-02-21T05:27:01.039Z,1004.55
2017-02-21T05:28:01.024Z,1004.51
2017-02-21T05:29:01.007Z,1004.51
2017-02-21T05:30:00.991Z,1004.5
2017-02-21T05:31:00.974Z,1004.49
2017-02-21T05:32:00.958Z,1004.49
2017-02-21T05:33:00.940Z,1004.5
2017-02-21T05:34:00.928Z,1004.5
2017-02-21T05:35:00.907Z,1004.5
2017-02-21T05:36:00.890Z,1004.49
2017-02-21T05:37:00.872Z,1004.48
2017-02-21T05:38:00.857Z,1004.48
2017-02-21T05:39:00.846Z,1004.49
2017-02-21T05:40:00.823Z,1004.48
2017-02-21T05:41:00.808Z,1004.42
2017-02-21T05:42:00.790Z,1004.48
2017-02-21T05:43:00.774Z,1004.53
2017-02-21T05:44:00.757Z,1004.53
2017-02-21T05:45:00.741Z,1004.57
2017-02-21T05:46:00.726Z,1004.55
2017-02-21T05:47:00.711Z,1004.55
2017-02-21T05:48:00.693Z,1004.55
2017-02-21T05:49:00.675Z,1004.52
2017-02-21T05:50:00.659Z,1004.57
2017-02-21T05:51:00.640Z,1004.56
2017-02-21T05:52:00.657Z,1004.59
2017-02-21T05:53:00.610Z,1004.56
2017-02-21T05:54:00.592Z,1004.57
2017-02-21T05:55:00.574Z,1004.57
2017-02-21T05:56:00.558Z,1004.6
2017-02-21T05:57:00.541Z,1004.65
2017-02-21T05:58:00.526Z,1004.58
2017-02-21T05:59:00.507Z,1004.48
2017-02-21T06:00:00.491Z,1004.51
2017-02-21T06:01:00.474Z,1004.52
2017-02-21T06:02:00.457Z,1004.51
2017-02-21T06:03:00.440Z,1004.57
2017-02-21T06:04:00.425Z,1004.58
2017-02-21T06:05:00.407Z,1004.62
2017-02-21T06:06:00.394Z,1004.67
2017-02-21T06:07:00.374Z,1004.7
2017-02-21T06:08:00.358Z,1004.73
2017-02-21T06:09:00.339Z,1004.72
2017-02-21T06:10:00.324Z,1004.73
2017-02-21T06:11:00.306Z,1004.75
2017-02-21T06:12:00.289Z,1004.76
2017-02-21T06:13:00.272Z,1004.74
2017-02-21T06:14:00.256Z,1004.77
2017-02-21T06:15:00.238Z,1004.82
2017-02-21T06:16:00.246Z,1004.84
2017-02-21T06:17:00.213Z,1004.78
2017-02-21T06:18:00.189Z,1004.82
2017-02-21T06:19:00.171Z,1004.83
2017-02-21T06:20:00.153Z,1004.92
2017-02-21T06:21:00.137Z,1004.96
2017-02-21T06:22:00.121Z,1004.92
2017-02-21T06:23:00.103Z,1004.94
2017-02-21T06:24:00.086Z,1004.97
2017-02-21T06:25:00.071Z,1004.94
2017-02-21T06:26:00.054Z,1004.99
2017-02-21T06:27:00.037Z,1004.97
2017-02-21T06:28:00.025Z,1004.97
2017-02-21T06:29:00.001Z,1004.96
2017-02-21T06:29:59.989Z,1004.97
2017-02-21T06:30:59.985Z,1004.97
2017-02-21T06:31:59.951Z,1004.97
2017-02-21T06:32:59.935Z,1004.97
2017-02-21T06:33:59.921Z,1004.97
2017-02-21T06:34:59.900Z,1004.94
2017-02-21T06:35:59.883Z,1005.03
2017-02-21T06:36:59.868Z,1005.05
2017-02-21T06:37:59.848Z,1005.06
2017-02-21T06:38:59.833Z,1005.09
2017-02-21T06:39:59.818Z,1005.06
2017-02-21T06:40:59.799Z,1005.08
2017-02-21T06:41:59.781Z,1005.07
2017-02-21T06:42:59.764Z,1005.09
2017-02-21T06:43:59.748Z,1005.13
2017-02-21T06:44:59.731Z,1005.13
2017-02-21T06:45:59.719Z,1005.11
2017-02-21T06:46:59.699Z,1005.14
2017-02-21T06:47:59.681Z,1005.17
2017-02-21T06:48:59.663Z,1005.23
2017-02-21T06:49:59.649Z,1005.23
2017-02-21T06:50:59.631Z,1005.24
2017-02-21T06:51:59.614Z,1005.19
2017-02-21T06:52:59.596Z,1005.21
2017-02-21T06:53:59.580Z,1005.22
2017-02-21T06:54:59.564Z,1005.16
2017-02-21T06:55:59.548Z,1005.22
2017-02-21T06:56:59.530Z,1005.17
2017-02-21T06:57:59.514Z,1005.19
2017-02-21T06:58:59.496Z,1005.26
2017-02-21T06:59:59.479Z,1005.26
2017-02-21T07:00:59.463Z,1005.27
2017-02-21T07:01:59.446Z,1005.29
2017-02-21T07:02:59.433Z,1005.33
2017-02-21T07:03:59.413Z,1005.36
2017-02-21T07:04:59.394Z,1005.32
2017-02-21T07:05:59.379Z,1005.28
2017-02-21T07:06:59.367Z,1005.26
2017-02-21T07:07:59.346Z,1005.31
2017-02-21T07:08:59.328Z,1005.33
2017-02-21T07:09:59.313Z,1005.24
2017-02-21T07:10:59.294Z,1005.21
2017-02-21T07:11:59.278Z,1005.26
2017-02-21T07:12:59.264Z,1005.25
2017-02-21T07:13:59.246Z,1005.19
2017-02-21T07:14:59.227Z,1005.16
2017-02-21T07:15:59.211Z,1005.24
2017-02-21T07:16:59.195Z,1005.22
2017-02-21T07:17:59.178Z,1005.28
2017-02-21T07:18:59.161Z,1005.32
2017-02-21T07:19:59.144Z,1005.28
2017-02-21T07:20:59.127Z,1005.34
2017-02-21T07:21:59.109Z,1005.34
2017-02-21T07:22:59.094Z,1005.38
2017-02-21T07:23:59.077Z,1005.38
2017-02-21T07:24:59.062Z,1005.39
2017-02-21T07:25:59.044Z,1005.46
2017-02-21T07:26:59.027Z,1005.46
2017-02-21T07:27:59.010Z,1005.51
2017-02-21T07:28:58.993Z,1005.54
2017-02-21T07:29:58.977Z,1005.48
2017-02-21T07:30:58.962Z,1005.54
2017-02-21T07:31:58.946Z,1005.48
2017-02-21T07:32:58.928Z,1005.51
2017-02-21T07:33:58.911Z,1005.48
2017-02-21T07:34:58.897Z,1005.49
2017-02-21T07:35:58.880Z,1005.46
2017-02-21T07:36:58.862Z,1005.48
2017-02-21T07:37:58.848Z,1005.52
2017-02-21T07:38:58.830Z,1005.52
2017-02-21T07:39:58.814Z,1005.49
2017-02-21T07:40:58.799Z,1005.5
2017-02-21T07:41:58.782Z,1005.48
2017-02-21T07:42:58.764Z,1005.48
2017-02-21T07:43:58.748Z,1005.48
2017-02-21T07:44:58.732Z,1005.51
2017-02-21T07:45:58.716Z,1005.46
2017-02-21T07:46:58.700Z,1005.53
2017-02-21T07:47:58.683Z,1005.48
2017-02-21T07:48:58.667Z,1005.49
2017-02-21T07:49:58.651Z,1005.5
2017-02-21T07:50:58.634Z,1005.51
2017-02-21T07:51:58.621Z,1005.54
2017-02-21T07:52:58.603Z,1005.58
2017-02-21T07:53:58.586Z,1005.57
2017-02-21T07:54:58.574Z,1005.54
2017-02-21T07:55:58.553Z,1005.51
2017-02-21T07:56:58.537Z,1005.56
2017-02-21T07:57:58.521Z,1005.58
2017-02-21T07:58:58.505Z,1005.55
2017-02-21T07:59:58.489Z,1005.53
2017-02-21T08:00:58.473Z,1005.53
2017-02-21T08:01:58.456Z,1005.51
2017-02-21T08:02:58.441Z,1005.57
2017-02-21T08:03:58.425Z,1005.57
2017-02-21T08:04:58.409Z,1005.68
2017-02-21T08:05:58.393Z,1005.59
2017-02-21T08:06:58.378Z,1005.66
2017-02-21T08:07:58.360Z,1005.68
2017-02-21T08:08:58.346Z,1005.66
2017-02-21T08:09:58.330Z,1005.71
2017-02-21T08:10:58.312Z,1005.68
2017-02-21T08:11:58.299Z,1005.71
2017-02-21T08:12:58.284Z,1005.74
2017-02-21T08:13:58.265Z,1005.74
2017-02-21T08:14:58.250Z,1005.74
2017-02-21T08:15:58.234Z,1005.69
2017-02-21T08:16:58.229Z,1005.75
2017-02-21T08:17:58.203Z,1005.74
2017-02-21T08:18:58.186Z,1005.75
2017-02-21T08:19:58.172Z,1005.79
2017-02-21T08:20:58.157Z,1005.77
2017-02-21T08:21:58.140Z,1005.84
2017-02-21T08:22:58.125Z,1005.87
2017-02-21T08:23:58.108Z,1005.94
2017-02-21T08:24:58.093Z,1005.84
2017-02-21T08:25:58.080Z,1005.84
2017-02-21T08:26:58.063Z,1005.82
2017-02-21T08:27:58.049Z,1005.82
2017-02-21T08:28:58.031Z,1005.88
2017-02-21T08:29:58.017Z,1005.89
2017-02-21T08:30:57.998Z,1005.9
2017-02-21T08:31:57.983Z,1005.9
2017-02-21T08:32:57.968Z,1005.94
2017-02-21T08:33:57.953Z,1005.92
2017-02-21T08:34:57.941Z,1005.9
2017-02-21T08:35:57.922Z,1005.94
2017-02-21T08:36:57.911Z,1005.92
2017-02-21T08:37:58.094Z,1005.97
2017-02-21T08:38:57.881Z,1006.02
2017-02-21T08:39:57.860Z,1006.05
2017-02-21T08:40:57.847Z,1005.99
2017-02-21T08:41:57.830Z,1005.98
2017-02-21T08:42:57.818Z,1006.04
2017-02-21T08:43:57.801Z,1005.99
2017-02-21T08:44:57.784Z,1006.03
2017-02-21T08:45:57.769Z,1006.01
2017-02-21T08:46:57.755Z,1006.06
2017-02-21T08:47:57.738Z,1006.12
2017-02-21T08:48:57.722Z,1006.09
2017-02-21T08:49:57.709Z,1006.07
2017-02-21T08:50:57.693Z,1006.12
2017-02-21T08:51:57.681Z,1006.1
2017-02-21T08:52:57.662Z,1006.14
2017-02-21T08:53:57.648Z,1006.08
2017-02-21T08:54:57.634Z,1006.15
2017-02-21T08:55:57.625Z,1006.14
2017-02-21T08:56:57.606Z,1006.16
2017-02-21T08:57:57.592Z,1006.17
2017-02-21T08:58:57.579Z,1006.18
2017-02-21T08:59:57.566Z,1006.21
2017-02-21T09:00:57.554Z,1006.23
2017-02-21T09:01:57.539Z,1006.13
2017-02-21T09:02:57.528Z,1006.16
2017-02-21T09:03:57.516Z,1006.16
2017-02-21T09:04:57.505Z,1006.19
2017-02-21T09:05:57.489Z,1006.21
2017-02-21T09:06:57.477Z,1006.16
2017-02-21T09:07:57.497Z,1006.13
2017-02-21T09:08:57.453Z,1006.18
2017-02-21T09:09:57.441Z,1006.24
2017-02-21T09:10:57.430Z,1006.25
2017-02-21T09:11:57.418Z,1006.25
2017-02-21T09:12:57.407Z,1006.29
2017-02-21T09:13:57.393Z,1006.26
2017-02-21T09:14:57.380Z,1006.23
2017-02-21T09:15:57.368Z,1006.35
2017-02-21T09:16:57.358Z,1006.3
2017-02-21T09:17:57.346Z,1006.28
2017-02-21T09:18:57.331Z,1006.24
2017-02-21T09:19:57.321Z,1006.26
2017-02-21T09:20:57.308Z,1006.32
2017-02-21T09:21:57.296Z,1006.3
2017-02-21T09:22:57.282Z,1006.32
2017-02-21T09:23:57.271Z,1006.26
2017-02-21T09:24:57.258Z,1006.29
2017-02-21T09:25:57.246Z,1006.3
2017-02-21T09:26:57.236Z,1006.28
2017-02-21T09:27:57.224Z,1006.29
2017-02-21T09:28:57.207Z,1006.3
2017-02-21T09:29:57.195Z,1006.24
2017-02-21T09:30:57.184Z,1006.33
2017-02-21T09:31:57.171Z,1006.33
2017-02-21T09:32:57.157Z,1006.37
2017-02-21T09:33:57.144Z,1006.39
2017-02-21T09:34:57.130Z,1006.42
2017-02-21T09:35:57.120Z,1006.45
2017-02-21T09:36:57.104Z,1006.46
2017-02-21T09:37:57.091Z,1006.46
2017-02-21T09:38:57.081Z,1006.43
2017-02-21T09:39:57.066Z,1006.43
2017-02-21T09:40:57.053Z,1006.46
2017-02-21T09:41:57.040Z,1006.49
2017-02-21T09:42:57.026Z,1006.55
2017-02-21T09:43:57.013Z,1006.53
2017-02-21T09:44:56.999Z,1006.49
2017-02-21T09:45:56.988Z,1006.57
2017-02-21T09:46:56.974Z,1006.59
2017-02-21T09:47:56.961Z,1006.59
2017-02-21T09:48:56.947Z,1006.57
2017-02-21T09:49:56.933Z,1006.61
2017-02-21T09:50:56.921Z,1006.57
2017-02-21T09:51:56.909Z,1006.59
2017-02-21T09:52:56.893Z,1006.63
2017-02-21T09:53:56.881Z,1006.62
2017-02-21T09:54:56.869Z,1006.63
2017-02-21T09:55:56.856Z,1006.63
2017-02-21T09:56:56.841Z,1006.62
2017-02-21T09:57:56.829Z,1006.7
2017-02-21T09:58:56.817Z,1006.69
2017-02-21T09:59:56.804Z,1006.61
2017-02-21T10:00:56.789Z,1006.66
2017-02-21T10:01:56.775Z,1006.65
2017-02-21T10:02:56.763Z,1006.59
2017-02-21T10:03:56.748Z,1006.62
2017-02-21T10:04:56.735Z,1006.55
2017-02-21T10:05:56.720Z,1006.59
2017-02-21T10:06:56.706Z,1006.56
2017-02-21T10:07:56.695Z,1006.59
2017-02-21T10:08:56.680Z,1006.6
2017-02-21T10:09:56.666Z,1006.61
2017-02-21T10:10:56.652Z,1006.57
2017-02-21T10:11:56.642Z,1006.57
2017-02-21T10:12:56.628Z,1006.55
2017-02-21T10:13:56.613Z,1006.54
2017-02-21T10:14:56.598Z,1006.59
2017-02-21T10:15:56.586Z,1006.6
2017-02-21T10:16:56.571Z,1006.59
2017-02-21T10:17:56.558Z,1006.62
2017-02-21T10:18:56.544Z,1006.59
2017-02-21T10:19:56.529Z,1006.61
2017-02-21T10:20:56.513Z,1006.57
2017-02-21T10:21:56.503Z,1006.64
2017-02-21T10:22:56.486Z,1006.57
2017-02-21T10:23:56.472Z,1006.54
2017-02-21T10:24:56.458Z,1006.52
2017-02-21T10:25:56.444Z,1006.53
2017-02-21T10:26:56.429Z,1006.48
2017-02-21T10:27:56.416Z,1006.51
2017-02-21T10:28:56.401Z,1006.48
2017-02-21T10:29:56.387Z,1006.5
2017-02-21T10:30:56.372Z,1006.49
2017-02-21T10:31:56.358Z,1006.5
2017-02-21T10:32:56.345Z,1006.5
2017-02-21T10:33:56.332Z,1006.53
2017-02-21T10:34:56.318Z,1006.49
2017-02-21T10:35:56.303Z,1006.5
2017-02-21T10:36:56.291Z,1006.49
2017-02-21T10:37:56.478Z,1006.47
2017-02-21T10:38:56.262Z,1006.42
2017-02-21T10:39:56.248Z,1006.46
2017-02-21T10:40:56.236Z,1006.42
2017-02-21T10:41:56.221Z,1006.46
2017-02-21T10:42:56.207Z,1006.47
2017-02-21T10:43:56.191Z,1006.46
2017-02-21T10:44:56.178Z,1006.47
2017-02-21T10:45:56.165Z,1006.42
2017-02-21T10:46:56.151Z,1006.46
2017-02-21T10:47:56.135Z,1006.45
2017-02-21T10:48:56.122Z,1006.48
2017-02-21T10:49:56.107Z,1006.51
2017-02-21T10:50:56.094Z,1006.48
2017-02-21T10:51:56.080Z,1006.49
2017-02-21T10:52:56.066Z,1006.48
2017-02-21T10:53:56.052Z,1006.47
2017-02-21T10:54:56.036Z,1006.47
2017-02-21T10:55:56.023Z,1006.48
2017-02-21T10:56:56.008Z,1006.47
2017-02-21T10:57:55.992Z,1006.49
2017-02-21T10:58:55.979Z,1006.52
2017-02-21T10:59:55.964Z,1006.54
2017-02-21T11:00:55.950Z,1006.57
2017-02-21T11:01:55.937Z,1006.59
2017-02-21T11:02:55.922Z,1006.55
2017-02-21T11:03:55.906Z,1006.6
2017-02-21T11:04:55.892Z,1006.65
2017-02-21T11:05:55.878Z,1006.62
2017-02-21T11:06:55.863Z,1006.65
2017-02-21T11:07:55.848Z,1006.59
2017-02-21T11:08:55.833Z,1006.61
2017-02-21T11:09:55.819Z,1006.58
2017-02-21T11:10:55.805Z,1006.55
2017-02-21T11:11:55.789Z,1006.58
2017-02-21T11:12:55.776Z,1006.57
2017-02-21T11:13:55.761Z,1006.59
2017-02-21T11:14:55.749Z,1006.58
2017-02-21T11:15:55.731Z,1006.61
2017-02-21T11:16:55.716Z,1006.61
2017-02-21T11:17:55.702Z,1006.62
2017-02-21T11:18:55.688Z,1006.68
2017-02-21T11:19:55.674Z,1006.65
2017-02-21T11:20:55.659Z,1006.65
2017-02-21T11:21:55.644Z,1006.64
2017-02-21T11:22:55.628Z,1006.62
2017-02-21T11:23:55.615Z,1006.63
2017-02-21T11:24:55.601Z,1006.56
2017-02-21T11:25:55.587Z,1006.56
2017-02-21T11:26:55.572Z,1006.59
2017-02-21T11:27:55.557Z,1006.64
2017-02-21T11:28:55.544Z,1006.65
2017-02-21T11:29:55.531Z,1006.63
2017-02-21T11:30:55.518Z,1006.61
2017-02-21T11:31:55.504Z,1006.6
2017-02-21T11:32:55.490Z,1006.61
2017-02-21T11:33:55.479Z,1006.61
2017-02-21T11:34:55.461Z,1006.65
2017-02-21T11:35:55.451Z,1006.7
2017-02-21T11:36:55.434Z,1006.63
2017-02-21T11:37:55.421Z,1006.61
2017-02-21T11:38:55.408Z,1006.61
2017-02-21T11:39:55.398Z,1006.63
2017-02-21T11:40:55.384Z,1006.64
2017-02-21T11:41:55.371Z,1006.61
2017-02-21T11:42:55.361Z,1006.57
2017-02-21T11:43:55.354Z,1006.67
2017-02-21T11:44:55.341Z,1006.59
2017-02-21T11:45:55.325Z,1006.65
2017-02-21T11:46:55.316Z,1006.62
2017-02-21T11:47:55.305Z,1006.59
2017-02-21T11:48:55.293Z,1006.57
2017-02-21T11:49:55.283Z,1006.59
2017-02-21T11:50:55.273Z,1006.57
2017-02-21T11:51:55.262Z,1006.63
2017-02-21T11:52:55.256Z,1006.58
2017-02-21T11:53:55.244Z,1006.62
2017-02-21T11:54:55.235Z,1006.58
2017-02-21T11:55:55.231Z,1006.65
2017-02-21T11:56:55.219Z,1006.61
2017-02-21T11:57:55.208Z,1006.63
2017-02-21T11:58:55.199Z,1006.67
2017-02-21T11:59:55.189Z,1006.62
2017-02-21T12:00:55.181Z,1006.61
2017-02-21T12:01:55.173Z,1006.65
2017-02-21T12:02:55.164Z,1006.6
2017-02-21T12:03:55.160Z,1006.64
2017-02-21T12:04:55.150Z,1006.59
2017-02-21T12:05:55.143Z,1006.63
2017-02-21T12:06:55.135Z,1006.58